Rhein, Canada
Current Conditions -  °F | °C
As of 3:00 PM on Sunday 23 Nov 2014 (Local Time) from CYQV Reporting Station
Clear Clear  
Wind Chill: -8°   Ceiling: Unl
Heat Index:   Visibility: 9mi
Dew Point:   Wind: 14mph
Humidity: 79%   Direction: 350°N
Pressure: 29.75"   Gusts: 21mph
Location:  51.35°N, 102.19°W
Report Text: CYQV 232100Z AUTO 35012G18KT 9SM CLR M13/M16 A2975 RMK SLP115
Loading
Personal Weather Stations






























Interactive Weather Map New forecast layout! Learn more

10-Day Weather Forecast

Advertisements
Track Severe Weather on mobile